createdAt,value
2018-10-02T00:00:04.150Z,5.60
2018-10-02T00:02:32.458Z,5.50
2018-10-02T00:05:00.554Z,5.40
2018-10-02T00:07:33.067Z,5.30
2018-10-02T00:10:02.300Z,5.30
2018-10-02T00:12:37.697Z,5.40
2018-10-02T00:15:07.027Z,5.40
2018-10-02T00:17:37.745Z,5.30
2018-10-02T00:20:07.066Z,5.30
2018-10-02T00:22:35.447Z,5.30
2018-10-02T00:25:04.803Z,5.20
2018-10-02T00:30:52.261Z,5.20
2018-10-02T00:33:21.087Z,5.20
2018-10-02T00:35:50.485Z,5.10
2018-10-02T00:38:19.482Z,5.00
2018-10-02T00:40:48.561Z,5.00
2018-10-02T00:43:17.730Z,4.90
2018-10-02T00:45:46.585Z,4.90
2018-10-02T00:48:14.829Z,4.90
2018-10-02T00:50:43.667Z,4.90
2018-10-02T00:53:12.181Z,4.90
2018-10-02T00:55:41.530Z,4.90
2018-10-02T00:58:10.551Z,4.90
2018-10-02T01:00:39.847Z,4.80
2018-10-02T01:03:08.147Z,4.90
2018-10-02T01:05:37.773Z,4.80
2018-10-02T01:08:07.831Z,4.70
2018-10-02T01:10:41.006Z,4.60
2018-10-02T01:13:09.601Z,4.60
2018-10-02T01:15:40.514Z,4.70
2018-10-02T01:18:09.515Z,4.60
2018-10-02T01:20:38.976Z,4.60
2018-10-02T01:23:08.848Z,4.60
2018-10-02T01:25:37.096Z,4.60
2018-10-02T01:28:05.479Z,4.60
2018-10-02T01:30:35.342Z,4.50
2018-10-02T01:33:03.694Z,4.60
2018-10-02T01:35:32.710Z,4.50
2018-10-02T01:38:03.700Z,4.50
2018-10-02T01:40:32.032Z,4.30
2018-10-02T01:43:01.486Z,4.40
2018-10-02T01:45:33.597Z,4.30
2018-10-02T01:48:03.045Z,4.30
2018-10-02T01:50:36.867Z,4.30
2018-10-02T01:53:06.841Z,4.30
2018-10-02T01:55:36.657Z,4.20
2018-10-02T01:58:13.731Z,4.20
2018-10-02T02:00:42.651Z,4.10
2018-10-02T02:03:12.046Z,4.10
2018-10-02T02:05:40.778Z,4.10
2018-10-02T02:08:10.902Z,4.10
2018-10-02T02:10:41.215Z,4.00
2018-10-02T02:13:10.507Z,4.00
2018-10-02T02:15:38.576Z,4.00
2018-10-02T02:18:07.109Z,4.00
2018-10-02T02:20:35.758Z,4.00
2018-10-02T02:23:07.886Z,4.10
2018-10-02T02:25:36.805Z,4.00
2018-10-02T02:28:06.375Z,3.90
2018-10-02T02:30:36.030Z,3.90
2018-10-02T02:33:04.112Z,3.90
2018-10-02T02:35:33.439Z,3.70
2018-10-02T02:38:01.665Z,3.70
2018-10-02T02:40:30.450Z,3.80
2018-10-02T02:42:58.504Z,3.70
2018-10-02T02:45:27.520Z,3.80
2018-10-02T02:48:02.675Z,3.80
2018-10-02T02:50:36.841Z,3.80
2018-10-02T02:53:13.161Z,3.70
2018-10-02T02:55:44.501Z,3.70
2018-10-02T02:58:13.776Z,3.70
2018-10-02T03:00:42.004Z,3.50
2018-10-02T03:03:12.148Z,3.70
2018-10-02T03:05:41.174Z,3.60
2018-10-02T03:08:11.206Z,3.60
2018-10-02T03:10:39.918Z,3.60
2018-10-02T03:13:08.531Z,3.60
2018-10-02T03:15:37.188Z,3.70
2018-10-02T03:18:07.857Z,3.80
2018-10-02T03:20:35.965Z,3.60
2018-10-02T03:23:03.976Z,3.70
2018-10-02T03:25:32.663Z,3.70
2018-10-02T03:28:14.906Z,3.80
2018-10-02T03:33:09.936Z,3.80
2018-10-02T03:35:38.648Z,3.70
2018-10-02T03:38:10.902Z,3.80
2018-10-02T03:40:39.666Z,3.80
2018-10-02T03:43:09.635Z,3.80
2018-10-02T03:45:39.755Z,3.90
2018-10-02T03:48:07.870Z,3.90
2018-10-02T03:50:36.879Z,4.00
2018-10-02T03:53:07.773Z,4.10
2018-10-02T03:55:37.606Z,4.00
2018-10-02T03:58:06.669Z,4.00
2018-10-02T04:01:04.715Z,3.90
2018-10-02T04:03:42.090Z,3.90
2018-10-02T04:06:11.953Z,3.90
2018-10-02T04:08:40.019Z,4.00
2018-10-02T04:11:10.264Z,4.00
2018-10-02T04:13:40.972Z,4.00
2018-10-02T04:16:09.153Z,4.10
2018-10-02T04:18:37.799Z,4.10
2018-10-02T04:21:06.371Z,4.10
2018-10-02T04:23:34.705Z,4.20
2018-10-02T04:26:03.523Z,4.20
2018-10-02T04:28:37.539Z,4.20
2018-10-02T04:31:14.909Z,4.20
2018-10-02T04:33:44.007Z,4.20
2018-10-02T04:36:12.189Z,4.20
2018-10-02T04:38:41.608Z,4.30
2018-10-02T04:41:13.537Z,4.10
2018-10-02T04:43:42.312Z,4.20
2018-10-02T04:46:20.649Z,4.30
2018-10-02T04:48:49.459Z,4.30
2018-10-02T04:51:19.983Z,4.40
2018-10-02T04:53:49.411Z,4.50
2018-10-02T04:56:24.976Z,4.50
2018-10-02T04:58:54.278Z,4.40
2018-10-02T05:01:22.329Z,4.30
2018-10-02T05:03:51.057Z,4.40
2018-10-02T05:06:20.800Z,4.40
2018-10-02T05:08:50.044Z,4.50
2018-10-02T05:11:19.399Z,4.60
2018-10-02T05:13:49.213Z,4.50
2018-10-02T05:16:17.221Z,4.60
2018-10-02T05:18:45.378Z,4.60
2018-10-02T05:21:14.523Z,4.60
2018-10-02T05:23:44.524Z,4.70
2018-10-02T05:26:13.404Z,4.60
2018-10-02T05:28:56.887Z,4.70
2018-10-02T05:32:02.456Z,4.70
2018-10-02T05:34:36.828Z,4.70
2018-10-02T05:37:06.717Z,4.80
2018-10-02T05:39:43.635Z,4.90
2018-10-02T05:42:19.827Z,4.90
2018-10-02T05:44:48.372Z,5.00
2018-10-02T05:47:34.159Z,5.10
2018-10-02T05:50:04.400Z,5.20
2018-10-02T05:52:40.578Z,5.40
2018-10-02T05:55:10.728Z,5.30
2018-10-02T05:57:39.486Z,5.40
2018-10-02T06:00:12.162Z,5.50
2018-10-02T06:02:41.787Z,5.50
2018-10-02T06:05:11.187Z,5.50
2018-10-02T06:07:40.263Z,5.50
2018-10-02T06:10:12.577Z,5.60
2018-10-02T06:13:04.429Z,5.60
2018-10-02T06:15:42.480Z,5.60
2018-10-02T06:18:15.442Z,5.60
2018-10-02T06:20:50.648Z,5.50
2018-10-02T06:23:43.849Z,5.40
2018-10-02T06:26:16.566Z,5.50
2018-10-02T06:28:59.727Z,5.50
2018-10-02T06:31:32.514Z,5.60
2018-10-02T06:34:06.705Z,5.70
2018-10-02T06:36:38.401Z,5.90
2018-10-02T06:39:10.372Z,5.80
2018-10-02T06:42:01.700Z,5.90
2018-10-02T06:44:33.441Z,6.00
2018-10-02T06:47:03.753Z,6.10
2018-10-02T06:49:33.043Z,6.10
2018-10-02T06:52:03.900Z,6.20
2018-10-02T06:54:36.419Z,6.30
2018-10-02T06:57:09.340Z,6.20
2018-10-02T06:59:40.683Z,6.30
2018-10-02T07:02:10.450Z,6.20
2018-10-02T07:04:40.407Z,6.20
2018-10-02T07:07:10.922Z,6.10
2018-10-02T07:09:53.539Z,6.20
2018-10-02T07:12:26.400Z,6.20
2018-10-02T07:14:55.952Z,6.30
2018-10-02T07:20:39.675Z,6.50
2018-10-02T07:23:25.058Z,6.40
2018-10-02T07:30:17.602Z,6.50
2018-10-02T07:32:52.720Z,6.30
2018-10-02T07:35:25.647Z,6.30
2018-10-02T07:41:53.479Z,6.60
2018-10-02T07:44:21.967Z,6.80
2018-10-02T07:46:57.401Z,6.60
2018-10-02T07:49:38.997Z,6.70
2018-10-02T07:52:10.600Z,6.60
2018-10-02T07:55:29.480Z,6.50
2018-10-02T08:01:17.176Z,6.50
2018-10-02T08:03:49.325Z,6.60
2018-10-02T08:06:21.599Z,6.60
2018-10-02T08:08:51.263Z,6.50
2018-10-02T08:11:24.657Z,6.50
2018-10-02T08:13:55.777Z,6.60
2018-10-02T08:16:33.324Z,6.60
2018-10-02T08:19:04.245Z,6.60
2018-10-02T08:21:37.562Z,6.30
2018-10-02T08:30:43.061Z,6.20
2018-10-02T08:33:13.833Z,6.20
2018-10-02T08:35:52.545Z,6.20
2018-10-02T08:38:51.181Z,6.20
2018-10-02T08:41:25.004Z,6.10
2018-10-02T08:43:56.571Z,6.10
2018-10-02T08:46:27.251Z,6.10
2018-10-02T08:48:56.395Z,6.00
2018-10-02T08:51:25.707Z,6.10
2018-10-02T08:53:57.363Z,6.00
2018-10-02T08:56:28.683Z,6.20
2018-10-02T08:59:13.939Z,6.00
2018-10-02T09:01:47.872Z,6.10
2018-10-02T09:04:17.743Z,6.20
2018-10-02T09:06:51.699Z,6.30
2018-10-02T09:09:37.385Z,6.20
2018-10-02T09:12:13.372Z,6.40
2018-10-02T09:15:20.149Z,6.40
2018-10-02T09:22:13.324Z,6.60
2018-10-02T09:25:39.224Z,6.50
2018-10-02T09:28:14.538Z,6.60
2018-10-02T09:30:51.517Z,6.60
2018-10-02T09:33:27.592Z,6.70
2018-10-02T09:36:06.851Z,6.60
2018-10-02T09:38:44.502Z,6.70
2018-10-02T09:41:20.264Z,6.80
2018-10-02T09:47:11.764Z,6.80
2018-10-02T09:49:44.797Z,6.80
2018-10-02T09:52:15.264Z,6.70
2018-10-02T09:54:48.360Z,6.70
2018-10-02T09:57:49.189Z,6.80
2018-10-02T10:00:30.924Z,6.80
2018-10-02T10:03:07.599Z,6.90
2018-10-02T10:05:42.483Z,7.00
2018-10-02T10:08:12.781Z,7.00
2018-10-02T10:10:44.757Z,7.00
2018-10-02T10:13:29.404Z,6.80
2018-10-02T10:16:03.347Z,6.70
2018-10-02T10:18:38.657Z,6.90
2018-10-02T10:21:08.239Z,6.80
2018-10-02T10:26:32.802Z,6.80
2018-10-02T10:29:03.641Z,6.90
2018-10-02T10:31:34.984Z,6.90
2018-10-02T10:34:16.151Z,6.90
2018-10-02T10:36:49.238Z,6.80
2018-10-02T10:39:23.606Z,6.80
2018-10-02T10:42:30.202Z,6.90
2018-10-02T10:45:16.604Z,6.90
2018-10-02T10:47:46.966Z,6.90
2018-10-02T10:50:22.772Z,6.80
2018-10-02T10:52:57.929Z,6.80
2018-10-02T10:55:45.150Z,6.80
2018-10-02T10:58:19.254Z,6.80
2018-10-02T11:00:50.850Z,7.00
2018-10-02T11:06:34.934Z,6.80
2018-10-02T11:09:10.704Z,6.80
2018-10-02T11:11:45.085Z,6.90
2018-10-02T11:14:16.282Z,6.90
2018-10-02T11:20:25.525Z,6.60
2018-10-02T11:23:19.322Z,6.60
2018-10-02T11:29:19.702Z,6.70
2018-10-02T11:38:02.572Z,6.70
2018-10-02T11:40:42.188Z,6.80
2018-10-02T11:46:11.929Z,6.80
2018-10-02T11:48:44.481Z,6.80
2018-10-02T11:51:15.620Z,6.90
2018-10-02T11:53:55.669Z,6.80
2018-10-02T11:57:02.094Z,6.90
2018-10-02T12:00:02.938Z,6.90
2018-10-02T12:02:40.711Z,6.90
2018-10-02T12:05:14.260Z,6.90
2018-10-02T12:07:43.519Z,7.00
2018-10-02T12:10:15.453Z,6.80
2018-10-02T12:12:46.600Z,6.90
2018-10-02T12:15:20.257Z,6.90
2018-10-02T12:17:50.147Z,7.10
2018-10-02T12:20:21.185Z,7.10
2018-10-02T12:32:28.321Z,7.00
2018-10-02T12:35:21.124Z,7.10
2018-10-02T12:37:55.892Z,7.10
2018-10-02T12:40:32.933Z,7.00
2018-10-02T12:43:03.582Z,7.00
2018-10-02T12:45:36.661Z,7.10
2018-10-02T12:48:05.681Z,7.00
2018-10-02T12:51:07.762Z,7.00
2018-10-02T12:53:45.449Z,7.00
2018-10-02T12:56:49.607Z,7.10
2018-10-02T12:59:55.935Z,7.10
2018-10-02T13:02:25.714Z,7.00
2018-10-02T13:04:54.823Z,7.20
2018-10-02T13:07:30.910Z,7.10
2018-10-02T13:10:11.671Z,7.10
2018-10-02T13:12:41.746Z,7.20
2018-10-02T13:15:11.898Z,7.20
2018-10-02T13:21:25.902Z,7.20
2018-10-02T13:24:08.744Z,7.20
2018-10-02T13:26:51.304Z,7.20
2018-10-02T13:29:22.646Z,7.20
2018-10-02T13:35:36.579Z,7.30
2018-10-02T13:38:07.333Z,7.20
2018-10-02T13:40:40.880Z,7.30
2018-10-02T13:47:14.179Z,7.30
2018-10-02T13:52:34.928Z,7.30
2018-10-02T13:55:09.746Z,7.30
2018-10-02T13:57:56.475Z,7.30
2018-10-02T14:07:02.860Z,7.50
2018-10-02T14:16:01.565Z,7.50
2018-10-02T14:18:37.331Z,7.40
2018-10-02T14:24:31.947Z,7.60
2018-10-02T14:27:11.577Z,7.50
2018-10-02T14:29:42.991Z,7.40
2018-10-02T14:32:12.326Z,7.60
2018-10-02T14:34:44.402Z,7.60
2018-10-02T14:37:16.697Z,7.50
2018-10-02T14:39:55.415Z,7.50
2018-10-02T14:42:26.236Z,7.50
2018-10-02T14:45:02.378Z,7.60
2018-10-02T14:48:04.523Z,7.60
2018-10-02T14:50:55.881Z,7.50
2018-10-02T14:59:51.177Z,7.70
2018-10-02T15:02:35.112Z,7.60
2018-10-02T15:05:17.865Z,7.60
2018-10-02T15:07:55.835Z,7.60
2018-10-02T15:10:26.802Z,7.70
2018-10-02T15:13:01.127Z,7.70
2018-10-02T15:15:44.288Z,7.70
2018-10-02T15:18:17.588Z,7.80
2018-10-02T15:20:48.540Z,7.80
2018-10-02T15:23:29.839Z,7.80
2018-10-02T15:33:15.804Z,7.80
2018-10-02T15:46:37.369Z,7.60
2018-10-02T15:49:39.118Z,7.60
2018-10-02T15:52:11.608Z,7.70
2018-10-02T15:55:53.813Z,7.70
2018-10-02T15:58:56.671Z,7.70
2018-10-02T16:04:32.729Z,7.60
2018-10-02T16:07:31.842Z,7.70
2018-10-02T16:10:39.364Z,7.70
2018-10-02T16:17:13.351Z,7.70
2018-10-02T16:20:03.276Z,7.80
2018-10-02T16:22:40.891Z,7.70
2018-10-02T16:25:23.715Z,7.80
2018-10-02T16:27:59.357Z,7.80
2018-10-02T16:31:36.129Z,8.00
2018-10-02T16:34:48.980Z,7.90
2018-10-02T16:40:34.705Z,7.80
2018-10-02T16:43:12.273Z,7.90
2018-10-02T16:45:47.633Z,7.90
2018-10-02T16:48:17.493Z,7.90
2018-10-02T16:50:49.016Z,7.90
2018-10-02T16:53:26.898Z,7.90
2018-10-02T16:59:53.299Z,7.90
2018-10-02T17:02:30.975Z,7.90
2018-10-02T17:05:33.059Z,8.00
2018-10-02T17:09:11.381Z,8.00
2018-10-02T17:11:57.632Z,7.90
2018-10-02T17:14:52.711Z,7.90
2018-10-02T17:17:25.929Z,7.90
2018-10-02T17:19:56.653Z,7.90
2018-10-02T17:29:38.197Z,8.00
2018-10-02T17:32:42.530Z,8.00
2018-10-02T17:35:22.491Z,8.10
2018-10-02T17:37:58.363Z,8.00
2018-10-02T17:44:13.064Z,8.10
2018-10-02T17:50:35.467Z,8.10
2018-10-02T17:53:13.811Z,8.10
2018-10-02T17:55:44.510Z,8.10
2018-10-02T17:58:18.421Z,8.10
2018-10-02T18:04:00.260Z,8.10
2018-10-02T18:06:37.742Z,8.10
2018-10-02T18:09:13.052Z,8.10
2018-10-02T18:11:57.345Z,8.10
2018-10-02T18:14:33.052Z,8.20
2018-10-02T18:17:07.199Z,8.20
2018-10-02T18:19:41.699Z,8.20
2018-10-02T18:22:16.197Z,8.20
2018-10-02T18:24:53.128Z,8.20
2018-10-02T18:27:30.750Z,8.20
2018-10-02T18:30:07.567Z,8.20
2018-10-02T18:32:46.701Z,8.20
2018-10-02T18:35:20.340Z,8.20
2018-10-02T18:39:05.781Z,8.20
2018-10-02T18:42:01.059Z,8.20
2018-10-02T18:44:37.123Z,8.20
2018-10-02T18:47:14.620Z,8.20
2018-10-02T18:53:02.209Z,8.30
2018-10-02T18:56:01.833Z,8.40
2018-10-02T18:58:45.818Z,8.30
2018-10-02T19:01:23.509Z,8.30
2018-10-02T19:03:59.302Z,8.30
2018-10-02T19:06:37.406Z,8.30
2018-10-02T19:09:19.424Z,8.30
2018-10-02T19:18:04.116Z,8.40
2018-10-02T19:20:42.052Z,8.40
2018-10-02T19:23:17.743Z,8.40
2018-10-02T19:25:56.306Z,8.40
2018-10-02T19:28:30.138Z,8.50
2018-10-02T19:31:25.778Z,8.50
2018-10-02T19:34:00.808Z,8.50
2018-10-02T19:36:38.503Z,8.50
2018-10-02T19:39:22.363Z,8.50
2018-10-02T19:41:58.367Z,8.60
2018-10-02T19:44:44.830Z,8.60
2018-10-02T19:49:58.352Z,8.70
2018-10-02T19:52:42.477Z,8.70
2018-10-02T19:55:22.378Z,8.70
2018-10-02T19:57:59.711Z,8.70
2018-10-02T20:00:32.440Z,8.70
2018-10-02T20:03:08.024Z,8.80
2018-10-02T20:05:47.658Z,8.80
2018-10-02T20:08:39.535Z,8.80
2018-10-02T20:11:14.120Z,8.80
2018-10-02T20:13:54.014Z,8.80
2018-10-02T20:16:31.282Z,8.80
2018-10-02T20:19:02.924Z,8.90
2018-10-02T20:21:42.817Z,8.80
2018-10-02T20:24:19.681Z,8.90
2018-10-02T20:26:54.708Z,8.80
2018-10-02T20:29:40.383Z,8.90
2018-10-02T20:32:10.718Z,8.90
2018-10-02T20:34:48.592Z,8.90
2018-10-02T20:37:20.231Z,8.90
2018-10-02T20:40:32.615Z,9.00
2018-10-02T20:43:08.544Z,9.00
2018-10-02T20:45:49.445Z,9.00
2018-10-02T20:48:26.645Z,8.90
2018-10-02T20:51:10.929Z,9.00
2018-10-02T20:53:48.513Z,8.90
2018-10-02T20:56:20.947Z,8.90
2018-10-02T20:58:59.027Z,8.90
2018-10-02T21:01:28.952Z,8.90
2018-10-02T21:04:13.882Z,9.00
2018-10-02T21:09:37.927Z,9.00
2018-10-02T21:12:10.096Z,9.00
2018-10-02T21:14:41.937Z,9.00
2018-10-02T21:17:25.609Z,9.10
2018-10-02T21:23:05.429Z,9.10
2018-10-02T21:25:39.599Z,9.00
2018-10-02T21:28:20.820Z,9.10
2018-10-02T21:30:55.200Z,9.10
2018-10-02T21:33:29.559Z,9.20
2018-10-02T21:36:01.165Z,9.10
2018-10-02T21:38:34.635Z,9.10
2018-10-02T21:41:08.624Z,9.20
2018-10-02T21:43:51.829Z,9.20
2018-10-02T21:46:25.211Z,9.20
2018-10-02T21:48:54.823Z,9.20
2018-10-02T21:51:29.814Z,9.20
2018-10-02T21:54:01.395Z,9.20
2018-10-02T22:00:01.123Z,9.30
2018-10-02T22:02:35.244Z,9.30
2018-10-02T22:05:07.635Z,9.40
2018-10-02T22:07:36.372Z,9.40
2018-10-02T22:10:49.472Z,9.40
2018-10-02T22:16:56.447Z,9.40
2018-10-02T22:19:53.503Z,9.50
2018-10-02T22:25:56.524Z,9.50
2018-10-02T22:28:34.792Z,9.40
2018-10-02T22:34:29.629Z,9.50
2018-10-02T22:36:58.888Z,9.40
2018-10-02T22:39:31.608Z,9.40
2018-10-02T22:42:08.381Z,9.40
2018-10-02T22:44:48.359Z,9.40
2018-10-02T22:47:19.095Z,9.40
2018-10-02T22:49:48.854Z,9.40
2018-10-02T22:52:19.188Z,9.40
2018-10-02T22:54:49.364Z,9.40
2018-10-02T22:57:17.821Z,9.40
2018-10-02T23:06:50.789Z,9.40
2018-10-02T23:09:22.591Z,9.50
2018-10-02T23:11:52.323Z,9.50
2018-10-02T23:14:22.055Z,9.50
2018-10-02T23:16:50.539Z,9.50
2018-10-02T23:22:09.747Z,9.50
2018-10-02T23:24:38.576Z,9.50
2018-10-02T23:27:08.507Z,9.60
2018-10-02T23:29:38.817Z,9.60
2018-10-02T23:32:06.927Z,9.60
2018-10-02T23:34:37.398Z,9.50
2018-10-02T23:37:09.066Z,9.60
2018-10-02T23:39:37.734Z,9.60
2018-10-02T23:42:07.442Z,9.60
2018-10-02T23:44:39.007Z,9.60
2018-10-02T23:47:08.027Z,9.60
2018-10-02T23:49:37.947Z,9.60
2018-10-02T23:52:06.715Z,9.60
2018-10-02T23:54:35.018Z,9.60
2018-10-02T23:57:05.257Z,9.70
2018-10-02T23:59:33.271Z,9.70
